Time;durP1;ratioP1;P1;durP2;ratioP2;P2;SDS_P1;SDS_P2;PMS_P1;PMS_P2;Temp;Humidity;BMP_temperature;BMP_pressure;BME280_temperature;BME280_humidity;BME280_pressure;Samples;Min_cycle;Max_cycle;Signal;HPM_P1;HPM_P2
2022/10/18 00:02:06;;;;;;;11.53;9.33;;;14.40;99.90;;;;;;5074158;28;20248;-72
2022/10/18 00:04:32;;;;;;;10.30;8.50;;;14.40;99.90;;;;;;5073484;28;20643;-72
2022/10/18 00:06:57;;;;;;;15.90;9.57;;;14.50;99.90;;;;;;5074142;28;20281;-73
2022/10/18 00:09:23;;;;;;;8.93;7.40;;;14.40;99.90;;;;;;5073179;28;20375;-69
2022/10/18 00:11:50;;;;;;;9.97;8.03;;;14.50;99.90;;;;;;5073859;28;20171;-70
2022/10/18 00:14:16;;;;;;;9.53;8.40;;;14.50;99.90;;;;;;5072977;28;20455;-69
2022/10/18 00:16:41;;;;;;;12.03;8.80;;;14.40;99.90;;;;;;5073733;28;20421;-72
2022/10/18 00:19:07;;;;;;;11.27;8.30;;;14.40;99.90;;;;;;5073720;28;20412;-72
2022/10/18 00:21:33;;;;;;;10.43;9.27;;;14.40;99.90;;;;;;5072866;28;20278;-69
2022/10/18 00:23:59;;;;;;;11.23;9.77;;;14.40;99.90;;;;;;5072956;28;20181;-71
2022/10/18 00:26:29;;;;;;;11.93;9.33;;;14.50;99.90;;;;;;5073615;28;20547;-72
2022/10/18 00:29:02;;;;;;;14.67;9.77;;;14.50;99.90;;;;;;5073997;28;20488;-71
2022/10/18 00:31:36;;;;;;;15.30;9.87;;;14.50;99.90;;;;;;5073531;28;20413;-72
2022/10/18 00:34:04;;;;;;;11.43;9.57;;;14.50;99.90;;;;;;5072925;28;20398;-69
2022/10/18 00:36:31;;;;;;;12.00;10.40;;;14.50;99.90;;;;;;5072307;28;20452;-69
2022/10/18 00:38:57;;;;;;;16.20;9.23;;;14.50;99.90;;;;;;5073320;28;20371;-71
2022/10/18 00:41:25;;;;;;;13.83;10.33;;;14.50;99.90;;;;;;5073399;28;20397;-72
2022/10/18 00:44:00;;;;;;;14.87;9.00;;;14.60;99.90;;;;;;5072619;28;20189;-72
2022/10/18 00:46:37;;;;;;;14.20;10.13;;;14.60;99.90;;;;;;5073325;28;20480;-72
2022/10/18 00:49:08;;;;;;;14.53;8.77;;;14.60;99.90;;;;;;5073733;28;20463;-69
2022/10/18 00:51:41;;;;;;;10.13;8.60;;;14.60;99.90;;;;;;5072067;28;20451;-68
2022/10/18 00:54:07;;;;;;;16.20;9.77;;;14.60;99.90;;;;;;5072897;28;20774;-70
2022/10/18 00:56:33;;;;;;;14.80;10.70;;;14.50;99.90;;;;;;5071663;28;20428;-72
2022/10/18 00:58:59;;;;;;;19.37;11.97;;;14.50;99.90;;;;;;5072413;28;20409;-69
2022/10/18 01:01:25;;;;;;;13.53;9.37;;;14.50;99.90;;;;;;5073437;28;20392;-68
2022/10/18 01:03:52;;;;;;;17.13;10.00;;;14.50;99.90;;;;;;5066201;28;20559;-70
2022/10/18 01:06:17;;;;;;;16.40;11.50;;;14.50;99.90;;;;;;5053409;28;20191;-69
2022/10/18 01:09:14;;;;;;;17.00;11.67;;;14.50;99.90;;;;;;5071991;28;20427;-69
2022/10/18 01:12:21;;;;;;;19.87;10.70;;;14.50;99.90;;;;;;5073063;28;20211;-72
2022/10/18 01:15:05;;;;;;;18.70;10.50;;;14.50;99.90;;;;;;5009639;28;20470;-70
2022/10/18 01:17:49;;;;;;;17.03;10.97;;;14.50;99.90;;;;;;5002989;28;20956;-70
2022/10/18 01:20:40;;;;;;;25.50;11.70;;;14.50;99.90;;;;;;5035700;28;20421;-70
2022/10/18 01:23:36;;;;;;;21.23;11.30;;;14.50;99.90;;;;;;5072471;28;20394;-70
2022/10/18 01:26:14;;;;;;;19.30;12.00;;;14.50;99.90;;;;;;5072637;28;20502;-72
2022/10/18 01:28:57;;;;;;;22.17;11.30;;;14.50;99.90;;;;;;5073369;28;20415;-71
2022/10/18 01:31:27;;;;;;;15.50;10.00;;;14.50;99.90;;;;;;5071144;28;20431;-71
2022/10/18 01:34:00;;;;;;;23.50;10.70;;;14.50;99.90;;;;;;5071864;28;20409;-72
2022/10/18 01:36:35;;;;;;;13.00;10.50;;;14.50;99.90;;;;;;5072726;28;20444;-71
2022/10/18 01:39:11;;;;;;;15.10;10.47;;;14.60;99.90;;;;;;5073261;28;20388;-69
2022/10/18 01:41:40;;;;;;;16.63;10.90;;;14.50;99.90;;;;;;5072790;28;20804;-71
2022/10/18 01:44:10;;;;;;;20.73;10.40;;;14.50;99.90;;;;;;5072143;28;20449;-71
2022/10/18 01:46:38;;;;;;;22.33;12.63;;;14.50;99.90;;;;;;5063980;28;20509;-69
2022/10/18 01:49:04;;;;;;;21.80;11.27;;;14.50;99.90;;;;;;5073007;28;20385;-71
2022/10/18 01:51:31;;;;;;;13.50;10.17;;;14.50;99.90;;;;;;5072232;28;20901;-71
2022/10/18 01:53:57;;;;;;;16.40;10.43;;;14.50;99.90;;;;;;5071963;28;20803;-71
2022/10/18 01:56:57;;;;;;;21.47;10.03;;;14.50;99.90;;;;;;5072733;28;20425;-71
2022/10/18 01:59:32;;;;;;;17.53;9.87;;;14.50;99.90;;;;;;5071786;28;20166;-71
2022/10/18 02:02:00;;;;;;;17.50;10.03;;;14.50;99.90;;;;;;5071307;28;20466;-72
2022/10/18 02:04:40;;;;;;;12.17;9.23;;;14.50;99.90;;;;;;5072052;28;20397;-69
2022/10/18 02:07:20;;;;;;;16.00;9.90;;;14.50;99.90;;;;;;5071778;28;20428;-72
2022/10/18 02:09:57;;;;;;;13.90;10.23;;;14.50;99.90;;;;;;5071550;28;20810;-72
2022/10/18 02:12:23;;;;;;;16.23;9.67;;;14.40;99.90;;;;;;5072306;28;20466;-72
2022/10/18 02:14:50;;;;;;;18.07;10.17;;;14.40;99.90;;;;;;5070719;28;20448;-72
2022/10/18 02:17:17;;;;;;;14.40;9.63;;;14.40;99.90;;;;;;5072522;28;20404;-72
2022/10/18 02:19:49;;;;;;;20.33;9.70;;;14.40;99.90;;;;;;5072874;28;20412;-72
2022/10/18 02:22:15;;;;;;;16.63;9.77;;;14.40;99.90;;;;;;5072183;28;20420;-71
2022/10/18 02:24:44;;;;;;;16.53;10.40;;;14.40;99.90;;;;;;5071482;28;20810;-72
2022/10/18 02:27:11;;;;;;;13.90;9.13;;;14.40;99.90;;;;;;5074543;28;20435;-71
2022/10/18 02:29:38;;;;;;;11.93;8.47;;;14.40;99.90;;;;;;5074014;28;20458;-72
2022/10/18 02:32:33;;;;;;;16.23;10.30;;;14.50;99.90;;;;;;5075918;28;20416;-72
2022/10/18 02:35:12;;;;;;;11.90;10.20;;;14.40;99.90;;;;;;5073884;28;20514;-71
2022/10/18 02:37:39;;;;;;;19.43;10.43;;;14.40;99.90;;;;;;5090296;28;20416;-72
2022/10/18 02:40:07;;;;;;;20.77;11.03;;;14.40;99.90;;;;;;5073132;28;20511;-71
2022/10/18 02:42:38;;;;;;;20.70;12.20;;;14.50;99.90;;;;;;5076021;28;20489;-68
2022/10/18 02:45:05;;;;;;;14.47;10.17;;;14.50;99.90;;;;;;5074230;28;20408;-71
2022/10/18 02:47:31;;;;;;;21.87;10.00;;;14.50;99.90;;;;;;5075505;28;20409;-71
2022/10/18 02:49:57;;;;;;;20.60;10.13;;;14.60;99.90;;;;;;5074818;28;20511;-70
2022/10/18 02:52:22;;;;;;;14.70;9.83;;;14.60;99.90;;;;;;5075326;28;20170;-73
2022/10/18 02:54:48;;;;;;;19.03;11.50;;;14.60;99.90;;;;;;5074963;28;20612;-70
2022/10/18 02:57:14;;;;;;;13.63;9.73;;;14.50;99.90;;;;;;5075891;28;20546;-72
2022/10/18 02:59:39;;;;;;;12.33;9.27;;;14.50;99.90;;;;;;5069547;28;20178;-71
2022/10/18 03:02:05;;;;;;;20.60;10.30;;;14.50;99.90;;;;;;5055516;28;20520;-72
2022/10/18 03:04:31;;;;;;;16.30;10.30;;;14.50;99.90;;;;;;5073317;28;20595;-72
2022/10/18 03:06:56;;;;;;;17.30;10.63;;;14.40;99.90;;;;;;5075652;28;20532;-70
2022/10/18 03:09:22;;;;;;;21.57;10.10;;;14.40;99.90;;;;;;5075354;28;20542;-70
2022/10/18 03:11:47;;;;;;;14.23;9.10;;;14.40;99.90;;;;;;5075331;28;20620;-72
2022/10/18 03:14:13;;;;;;;22.13;10.27;;;14.40;99.90;;;;;;5073236;28;20642;-73
2022/10/18 03:16:39;;;;;;;13.23;9.50;;;14.40;99.90;;;;;;5074794;28;20247;-71
2022/10/18 03:19:05;;;;;;;17.67;9.20;;;14.30;99.90;;;;;;5075031;28;20162;-70
2022/10/18 03:21:30;;;;;;;14.23;10.30;;;14.40;99.90;;;;;;5075040;28;20201;-70
2022/10/18 03:23:57;;;;;;;25.90;10.83;;;14.30;99.90;;;;;;5074483;28;20241;-70
2022/10/18 03:26:23;;;;;;;23.33;11.13;;;14.30;99.90;;;;;;5074971;28;20218;-72
2022/10/18 03:28:48;;;;;;;18.33;10.17;;;14.30;99.90;;;;;;5073065;28;20857;-71
2022/10/18 03:31:14;;;;;;;28.20;10.70;;;14.30;99.90;;;;;;5075119;28;20178;-70
2022/10/18 03:33:40;;;;;;;19.13;10.17;;;14.30;99.90;;;;;;5074264;28;20175;-72
2022/10/18 03:36:06;;;;;;;22.47;10.30;;;14.30;99.90;;;;;;5072106;28;20205;-71
2022/10/18 03:38:31;;;;;;;17.43;9.97;;;14.20;99.90;;;;;;5074631;28;20170;-73
2022/10/18 03:40:57;;;;;;;18.07;10.93;;;14.10;99.90;;;;;;5074587;28;20284;-71
2022/10/18 03:43:23;;;;;;;20.33;10.23;;;14.20;99.90;;;;;;5073453;28;20182;-71
2022/10/18 03:45:48;;;;;;;18.30;10.50;;;14.20;99.90;;;;;;5073785;28;20273;-72
2022/10/18 03:48:14;;;;;;;15.33;9.70;;;14.20;99.90;;;;;;5074902;28;20201;-70
2022/10/18 03:50:40;;;;;;;16.67;9.67;;;14.20;99.90;;;;;;5074118;28;20209;-72
2022/10/18 03:53:06;;;;;;;14.97;9.30;;;14.20;99.90;;;;;;5074206;28;20241;-72
2022/10/18 03:55:32;;;;;;;20.67;9.67;;;14.20;99.90;;;;;;5071477;28;20547;-70
2022/10/18 03:57:57;;;;;;;15.00;10.63;;;14.30;99.90;;;;;;5074838;28;20158;-72
2022/10/18 04:00:23;;;;;;;19.03;11.40;;;14.20;99.90;;;;;;5069639;28;20224;-71
2022/10/18 04:02:49;;;;;;;19.43;10.07;;;14.10;99.90;;;;;;5053172;28;20182;-72
2022/10/18 04:05:15;;;;;;;21.50;11.47;;;14.10;99.90;;;;;;5056366;28;20222;-71
2022/10/18 04:07:40;;;;;;;18.40;11.40;;;14.10;99.90;;;;;;5074378;28;20196;-72
2022/10/18 04:10:07;;;;;;;19.70;11.83;;;14.00;99.90;;;;;;5072553;28;20531;-71
2022/10/18 04:12:32;;;;;;;17.30;11.87;;;14.00;99.90;;;;;;5074433;28;20174;-71
2022/10/18 04:14:58;;;;;;;18.53;11.13;;;14.00;99.90;;;;;;5073099;28;20455;-71
2022/10/18 04:17:23;;;;;;;15.17;11.30;;;13.90;99.90;;;;;;5074046;28;20180;-71
2022/10/18 04:19:49;;;;;;;20.00;12.80;;;13.90;99.90;;;;;;5072955;28;20198;-71
2022/10/18 04:22:15;;;;;;;24.63;12.43;;;13.80;99.90;;;;;;5073913;28;20174;-71
2022/10/18 04:24:40;;;;;;;14.80;11.73;;;13.70;99.90;;;;;;5072025;28;20178;-71
2022/10/18 04:27:07;;;;;;;21.50;11.30;;;13.70;99.90;;;;;;5071924;28;20554;-72
2022/10/18 04:29:33;;;;;;;23.63;12.30;;;13.60;99.90;;;;;;5074180;28;20166;-70
2022/10/18 04:31:58;;;;;;;15.40;10.87;;;13.50;99.90;;;;;;5073530;28;20420;-70
2022/10/18 04:34:24;;;;;;;16.30;11.20;;;13.50;99.90;;;;;;5071697;28;20452;-72
2022/10/18 04:36:50;;;;;;;17.77;11.53;;;13.50;99.90;;;;;;5073552;28;20269;-70
2022/10/18 04:39:16;;;;;;;21.13;10.50;;;13.50;99.90;;;;;;5068129;28;20231;-72
2022/10/18 04:41:41;;;;;;;14.87;11.00;;;13.40;99.90;;;;;;5070508;28;20581;-71
2022/10/18 04:44:08;;;;;;;18.63;11.43;;;13.30;99.90;;;;;;5071178;28;20265;-70
2022/10/18 04:46:34;;;;;;;23.33;11.03;;;13.30;99.90;;;;;;5067765;28;20237;-71
2022/10/18 04:49:00;;;;;;;20.13;11.17;;;13.40;99.90;;;;;;5068332;28;20790;-71
2022/10/18 04:51:27;;;;;;;16.13;10.50;;;13.30;99.90;;;;;;5066862;28;20163;-70
2022/10/18 04:53:52;;;;;;;22.20;10.77;;;13.30;99.90;;;;;;5071426;28;20411;-70
2022/10/18 04:56:18;;;;;;;23.40;11.97;;;13.30;99.90;;;;;;5072309;28;20810;-72
2022/10/18 04:58:44;;;;;;;22.60;11.63;;;13.30;99.90;;;;;;5073688;28;20687;-73
2022/10/18 05:01:09;;;;;;;28.20;10.50;;;13.30;99.90;;;;;;5072868;28;20623;-72
2022/10/18 05:03:35;;;;;;;13.23;9.80;;;13.20;99.90;;;;;;5073053;28;20647;-78
2022/10/18 05:06:01;;;;;;;19.73;10.77;;;13.20;99.90;;;;;;5072509;28;20532;-71
2022/10/18 05:08:27;;;;;;;18.10;10.17;;;13.20;99.90;;;;;;5073717;28;20217;-71
2022/10/18 05:10:53;;;;;;;22.80;12.70;;;13.20;99.90;;;;;;5061725;28;20189;-70
2022/10/18 05:13:18;;;;;;;13.90;9.87;;;13.10;99.90;;;;;;5067064;28;20433;-79
2022/10/18 05:15:46;;;;;;;22.63;11.23;;;13.20;99.90;;;;;;5052521;28;20230;-72
2022/10/18 05:18:11;;;;;;;15.93;10.13;;;13.10;99.90;;;;;;5066596;28;20170;-72
2022/10/18 05:20:37;;;;;;;25.63;11.87;;;13.10;99.90;;;;;;5073298;28;20395;-72
2022/10/18 05:23:03;;;;;;;22.27;10.83;;;13.10;99.90;;;;;;5073202;28;20518;-72
2022/10/18 05:25:29;;;;;;;18.87;11.70;;;13.10;99.90;;;;;;5071361;28;20229;-72
2022/10/18 05:27:55;;;;;;;20.90;12.40;;;13.10;99.90;;;;;;5072939;28;20420;-70
2022/10/18 05:30:21;;;;;;;17.80;11.27;;;13.10;99.90;;;;;;5073319;28;20439;-71
2022/10/18 05:32:47;;;;;;;18.20;12.60;;;13.10;99.90;;;;;;5073051;28;20905;-72
2022/10/18 05:35:13;;;;;;;24.37;12.90;;;13.10;99.90;;;;;;5072146;28;20262;-70
2022/10/18 05:37:38;;;;;;;28.77;14.30;;;13.10;99.90;;;;;;5072444;28;20300;-72
2022/10/18 05:40:04;;;;;;;19.07;12.03;;;13.10;99.90;;;;;;5063554;28;20627;-71
2022/10/18 05:42:30;;;;;;;19.27;12.30;;;13.10;99.90;;;;;;5057967;28;20166;-73
2022/10/18 05:44:56;;;;;;;25.00;11.80;;;13.10;99.90;;;;;;5054275;28;21052;-73
2022/10/18 05:47:21;;;;;;;25.47;12.23;;;13.10;99.90;;;;;;5054667;28;20182;-74
2022/10/18 05:49:47;;;;;;;23.17;12.33;;;13.00;99.90;;;;;;5071104;28;20253;-75
2022/10/18 05:52:13;;;;;;;27.27;11.83;;;13.00;99.90;;;;;;5069838;28;20237;-71
2022/10/18 05:54:38;;;;;;;17.77;11.87;;;13.00;99.90;;;;;;5066368;28;20273;-71
2022/10/18 05:57:04;;;;;;;21.37;12.40;;;13.00;99.90;;;;;;5062367;28;20619;-74
2022/10/18 05:59:29;;;;;;;18.77;11.73;;;13.00;99.90;;;;;;5064491;28;20162;-70
2022/10/18 06:01:55;;;;;;;20.33;10.60;;;13.00;99.90;;;;;;5075188;28;20261;-72
2022/10/18 06:04:21;;;;;;;24.60;12.60;;;13.00;99.90;;;;;;5074215;28;20243;-70
2022/10/18 06:06:46;;;;;;;19.53;11.60;;;13.00;99.90;;;;;;5075145;28;20236;-71
2022/10/18 06:09:12;;;;;;;22.07;11.67;;;13.00;99.90;;;;;;5076184;28;20535;-71
2022/10/18 06:11:38;;;;;;;18.70;11.73;;;13.00;99.90;;;;;;5070372;28;20181;-72
2022/10/18 06:14:04;;;;;;;25.37;12.10;;;13.00;99.90;;;;;;5073411;28;20213;-71
2022/10/18 06:16:30;;;;;;;20.17;12.33;;;13.00;99.90;;;;;;5076503;28;20198;-70
2022/10/18 06:18:56;;;;;;;14.33;10.53;;;13.00;99.90;;;;;;5076157;28;20466;-72
2022/10/18 06:21:23;;;;;;;18.50;12.53;;;13.00;99.90;;;;;;5076467;28;20249;-72
2022/10/18 06:23:54;;;;;;;26.13;12.53;;;13.00;99.90;;;;;;5073787;28;20475;-72
2022/10/18 06:26:21;;;;;;;22.47;11.97;;;13.10;99.90;;;;;;5076230;28;20416;-72
2022/10/18 06:28:47;;;;;;;20.80;12.23;;;13.10;99.90;;;;;;5076125;28;20603;-70
2022/10/18 06:31:13;;;;;;;23.43;11.77;;;13.10;99.90;;;;;;5070195;28;20425;-73
2022/10/18 06:33:39;;;;;;;19.40;11.20;;;13.10;99.90;;;;;;5072584;28;20447;-73
2022/10/18 06:36:14;;;;;;;19.23;11.90;;;13.10;99.90;;;;;;5075971;28;20491;-72
2022/10/18 06:38:40;;;;;;;31.80;14.20;;;13.20;99.90;;;;;;5075905;28;20634;-72
2022/10/18 06:41:06;;;;;;;19.00;11.20;;;13.10;99.90;;;;;;5089936;28;20503;-72
2022/10/18 06:43:32;;;;;;;27.10;12.27;;;13.10;99.90;;;;;;5074953;28;20543;-71
2022/10/18 06:46:01;;;;;;;21.93;11.20;;;13.20;99.90;;;;;;5074245;28;20410;-72
2022/10/18 06:48:26;;;;;;;28.67;12.30;;;13.20;99.90;;;;;;5074758;28;20409;-71
2022/10/18 06:50:57;;;;;;;18.57;11.70;;;13.20;99.90;;;;;;5075666;28;20419;-71
2022/10/18 06:53:28;;;;;;;19.20;11.57;;;13.30;99.90;;;;;;5074361;28;20530;-73
2022/10/18 06:56:02;;;;;;;23.47;11.27;;;13.30;99.90;;;;;;5074962;28;20467;-71
2022/10/18 06:58:29;;;;;;;18.67;11.93;;;13.30;99.90;;;;;;5074423;28;20498;-73
2022/10/18 07:00:55;;;;;;;25.93;11.20;;;13.30;99.90;;;;;;5057586;28;20447;-72
2022/10/18 07:03:20;;;;;;;20.57;12.17;;;13.30;99.90;;;;;;5055425;28;20422;-72
2022/10/18 07:05:47;;;;;;;22.77;13.07;;;13.30;99.90;;;;;;5054462;28;20451;-71
2022/10/18 07:08:13;;;;;;;20.17;11.80;;;13.40;99.90;;;;;;5055511;28;20576;-70
2022/10/18 07:10:39;;;;;;;23.33;10.50;;;13.40;99.90;;;;;;5054326;28;20898;-71
2022/10/18 07:13:04;;;;;;;22.60;11.23;;;13.40;99.90;;;;;;5054845;28;20404;-72
2022/10/18 07:15:30;;;;;;;30.43;11.37;;;13.40;99.90;;;;;;5085676;28;20688;-71
2022/10/18 07:17:56;;;;;;;21.43;10.73;;;13.40;99.90;;;;;;5075557;28;20500;-72
2022/10/18 07:20:22;;;;;;;19.03;11.10;;;13.40;99.90;;;;;;5075120;28;20619;-72
2022/10/18 07:22:47;;;;;;;30.90;10.40;;;13.50;99.90;;;;;;5075075;28;20179;-72
2022/10/18 07:25:13;;;;;;;32.03;11.10;;;13.40;99.90;;;;;;5072799;28;20432;-71
2022/10/18 07:27:41;;;;;;;24.30;13.17;;;13.50;99.90;;;;;;5083816;28;20171;-71
2022/10/18 07:30:08;;;;;;;23.10;9.70;;;13.40;99.90;;;;;;5054270;28;20191;-72
2022/10/18 07:32:34;;;;;;;24.17;10.93;;;13.50;99.90;;;;;;5054937;28;20421;-73
2022/10/18 07:35:01;;;;;;;22.90;11.10;;;13.60;99.90;;;;;;5054143;28;20456;-73
2022/10/18 07:37:27;;;;;;;20.63;11.27;;;13.60;99.90;;;;;;5055132;28;20254;-72
2022/10/18 07:39:53;;;;;;;20.43;11.63;;;13.70;99.90;;;;;;5070345;28;20512;-71
2022/10/18 07:42:18;;;;;;;20.70;12.33;;;13.70;99.90;;;;;;5059571;28;20554;-73
2022/10/18 07:44:44;;;;;;;21.10;11.40;;;13.70;99.90;;;;;;5072476;28;20197;-71
2022/10/18 07:47:09;;;;;;;18.27;11.23;;;13.80;99.90;;;;;;5073787;28;20206;-71
2022/10/18 07:49:35;;;;;;;20.80;10.67;;;13.80;99.90;;;;;;5074878;28;20174;-72
2022/10/18 07:52:01;;;;;;;22.57;11.20;;;13.80;99.90;;;;;;5074826;28;20542;-72
2022/10/18 07:54:26;;;;;;;16.47;11.00;;;13.90;99.90;;;;;;5073700;28;20174;-72
2022/10/18 07:56:52;;;;;;;21.60;10.30;;;13.90;99.90;;;;;;5073221;28;20190;-71
2022/10/18 07:59:17;;;;;;;17.30;10.30;;;13.90;99.90;;;;;;5074734;28;20589;-72
2022/10/18 08:01:43;;;;;;;12.47;9.17;;;13.90;99.90;;;;;;5073561;28;20217;-71
2022/10/18 08:04:09;;;;;;;25.33;10.17;;;14.00;99.90;;;;;;5073051;28;20240;-71
2022/10/18 08:06:35;;;;;;;16.80;9.80;;;14.00;99.90;;;;;;5073024;28;20190;-72
2022/10/18 08:09:01;;;;;;;16.87;10.67;;;14.00;99.90;;;;;;5074389;28;20447;-72
2022/10/18 08:11:26;;;;;;;13.27;9.87;;;13.90;99.90;;;;;;5074370;28;20394;-71
2022/10/18 08:13:53;;;;;;;22.50;10.13;;;13.90;99.90;;;;;;5073702;28;20409;-72
2022/10/18 08:16:28;;;;;;;18.37;10.30;;;13.80;99.90;;;;;;5073299;28;20625;-71
2022/10/18 08:18:57;;;;;;;15.20;9.73;;;13.80;99.90;;;;;;5074338;28;20749;-71
2022/10/18 08:21:22;;;;;;;26.80;10.87;;;13.90;99.90;;;;;;5072897;28;20428;-73
2022/10/18 08:23:48;;;;;;;25.67;10.90;;;13.90;99.90;;;;;;5071844;28;20412;-73
2022/10/18 08:26:17;;;;;;;20.43;9.70;;;13.90;99.90;;;;;;5074079;28;20650;-72
2022/10/18 08:28:43;;;;;;;17.17;10.00;;;13.80;99.90;;;;;;5074040;28;20409;-72
2022/10/18 08:31:16;;;;;;;23.53;9.10;;;13.80;99.90;;;;;;5072862;28;20433;-71
2022/10/18 08:33:42;;;;;;;16.97;10.20;;;13.80;99.90;;;;;;5073131;28;20819;-73
2022/10/18 08:36:10;;;;;;;25.40;9.70;;;13.80;99.90;;;;;;5073715;28;20460;-71
2022/10/18 08:38:38;;;;;;;21.23;9.50;;;13.70;99.90;;;;;;5072790;28;20410;-71
2022/10/18 08:41:28;;;;;;;15.40;9.00;;;13.70;99.90;;;;;;5073325;28;20462;-72
2022/10/18 08:44:16;;;;;;;20.97;9.50;;;13.70;99.90;;;;;;5072944;28;20408;-71
2022/10/18 08:46:49;;;;;;;10.53;7.10;;;13.60;99.90;;;;;;5053754;28;20476;-71
2022/10/18 08:49:33;;;;;;;23.63;7.47;;;13.60;99.90;;;;;;5067250;28;20416;-75
2022/10/18 08:51:59;;;;;;;14.53;8.30;;;13.60;99.90;;;;;;5072458;28;20417;-72
2022/10/18 08:54:48;;;;;;;17.07;8.30;;;13.60;99.90;;;;;;5072279;28;20421;-72
2022/10/18 08:57:16;;;;;;;14.43;8.00;;;13.50;99.90;;;;;;5069914;28;20178;-73
2022/10/18 08:59:43;;;;;;;16.50;8.10;;;13.60;99.90;;;;;;5072017;28;20428;-73
2022/10/18 09:02:47;;;;;;;20.47;7.57;;;13.70;99.90;;;;;;5073155;28;20387;-72
2022/10/18 09:05:42;;;;;;;16.73;7.20;;;13.90;99.90;;;;;;5071849;28;20441;-75
2022/10/18 09:08:16;;;;;;;19.57;7.37;;;14.00;99.90;;;;;;5073463;28;20423;-72
2022/10/18 09:10:57;;;;;;;13.13;7.50;;;14.20;99.90;;;;;;5062877;28;20436;-72
2022/10/18 09:13:41;;;;;;;16.40;7.73;;;14.50;99.90;;;;;;5053071;28;20424;-74
2022/10/18 09:16:20;;;;;;;12.77;7.10;;;14.80;99.90;;;;;;5051831;28;20467;-74
2022/10/18 09:19:43;;;;;;;16.43;5.57;;;15.10;99.90;;;;;;5053235;28;20478;-72
2022/10/18 09:22:12;;;;;;;16.73;5.50;;;15.00;99.90;;;;;;5011866;28;20426;-72
2022/10/18 09:24:43;;;;;;;6.73;6.03;;;14.90;84.30;;;;;;5013862;28;20434;-73
2022/10/18 09:27:21;;;;;;;15.47;5.87;;;14.80;42.00;;;;;;5057609;28;20439;-73
2022/10/18 09:30:01;;;;;;;10.40;4.43;;;14.70;44.00;;;;;;5072217;28;20436;-73
2022/10/18 09:32:49;;;;;;;11.33;4.97;;;14.70;36.90;;;;;;5072225;28;20556;-71
2022/10/18 09:35:26;;;;;;;10.77;4.63;;;14.70;20.30;;;;;;5071780;28;20452;-71
2022/10/18 09:38:02;;;;;;;11.67;4.67;;;14.80;1.00;;;;;;5075380;28;20432;-73
2022/10/18 09:40:31;;;;;;;16.67;5.90;;;14.80;1.00;;;;;;5069801;28;21005;-72
2022/10/18 09:43:13;;;;;;;15.47;6.43;;;15.00;1.00;;;;;;5055884;28;20409;-72
2022/10/18 09:45:41;;;;;;;10.83;5.20;;;15.10;1.00;;;;;;5056051;28;20529;-72
2022/10/18 09:48:26;;;;;;;15.63;5.70;;;14.90;1.00;;;;;;5057206;28;20405;-69
2022/10/18 09:51:11;;;;;;;8.67;5.70;;;14.90;1.00;;;;;;5072587;28;20986;-75
2022/10/18 09:54:12;;;;;;;8.60;4.40;;;14.90;1.00;;;;;;5076306;28;20388;-74
2022/10/18 09:56:48;;;;;;;11.57;4.87;;;15.00;1.00;;;;;;5076542;28;20455;-74
2022/10/18 09:59:39;;;;;;;12.63;5.20;;;15.10;1.00;;;;;;5077009;28;20375;-75
2022/10/18 10:02:09;;;;;;;17.00;5.23;;;15.60;1.00;;;;;;5069922;28;20423;-76
2022/10/18 10:04:35;;;;;;;9.90;4.50;;;15.90;1.00;;;;;;5075034;28;20435;-74
2022/10/18 10:07:01;;;;;;;13.10;6.83;;;16.60;1.00;;;;;;5075377;28;20451;-73
2022/10/18 10:09:39;;;;;;;11.07;4.53;;;17.50;1.00;;;;;;5076765;28;20207;-70
2022/10/18 10:12:21;;;;;;;11.30;5.20;;;17.90;99.90;;;;;;5076398;28;20404;-70
2022/10/18 10:14:47;;;;;;;6.03;4.10;;;17.90;99.90;;;;;;5075607;28;20489;-70
2022/10/18 10:17:28;;;;;;;7.90;4.97;;;17.70;99.90;;;;;;5075357;28;20420;-70
2022/10/18 10:20:04;;;;;;;8.13;4.10;;;17.50;99.90;;;;;;5075445;28;20533;-70
2022/10/18 10:22:39;;;;;;;6.47;3.83;;;17.70;99.90;;;;;;5076562;28;20435;-72
2022/10/18 10:25:06;;;;;;;9.27;4.83;;;17.30;99.90;;;;;;5075503;28;20491;-71
2022/10/18 10:27:43;;;;;;;7.30;4.43;;;17.10;99.90;;;;;;5076494;28;20396;-72
2022/10/18 10:30:23;;;;;;;7.30;5.27;;;17.10;99.90;;;;;;5075806;28;20404;-72
2022/10/18 10:32:50;;;;;;;8.30;4.43;;;16.80;99.90;;;;;;5076355;28;20490;-71
2022/10/18 10:35:31;;;;;;;13.77;5.20;;;16.80;99.90;;;;;;5057062;28;20461;-70
2022/10/18 10:37:57;;;;;;;5.87;4.63;;;16.90;99.90;;;;;;5056048;28;20400;-74
2022/10/18 10:40:26;;;;;;;8.70;4.30;;;17.00;99.90;;;;;;5056152;28;20393;-72
2022/10/18 10:43:03;;;;;;;8.97;4.60;;;17.00;98.10;;;;;;5056010;28;20227;-73
2022/10/18 10:45:36;;;;;;;6.97;4.30;;;17.00;99.90;;;;;;5053538;28;20437;-74
2022/10/18 10:48:17;;;;;;;10.53;4.00;;;16.50;94.70;;;;;;5066023;28;20436;-74
2022/10/18 10:51:00;;;;;;;6.80;4.37;;;16.30;99.80;;;;;;5076091;28;20401;-74
2022/10/18 10:53:34;;;;;;;9.50;3.70;;;16.20;99.90;;;;;;5075612;28;20408;-77
2022/10/18 10:56:01;;;;;;;13.60;4.27;;;16.40;99.90;;;;;;5075104;28;20956;-73
2022/10/18 10:58:33;;;;;;;11.57;3.53;;;16.40;98.60;;;;;;5075769;28;20925;-73
2022/10/18 11:01:17;;;;;;;15.10;4.60;;;16.40;99.90;;;;;;5074743;28;20420;-73
2022/10/18 11:03:51;;;;;;;10.27;3.53;;;16.40;94.40;;;;;;5054677;28;20425;-72
2022/10/18 11:06:52;;;;;;;6.40;2.97;;;16.40;94.30;;;;;;5054892;28;20514;-73
2022/10/18 11:09:32;;;;;;;5.20;3.63;;;16.50;94.40;;;;;;5047280;28;20917;-73
2022/10/18 11:12:11;;;;;;;9.73;4.03;;;16.70;94.60;;;;;;5055670;28;20405;-74
2022/10/18 11:14:40;;;;;;;6.27;3.20;;;16.70;94.50;;;;;;5054608;28;20770;-73
2022/10/18 11:17:28;;;;;;;6.80;3.73;;;16.90;94.50;;;;;;5064785;28;20450;-73
2022/10/18 11:20:06;;;;;;;9.23;3.97;;;16.90;81.30;;;;;;5074538;28;20408;-73
2022/10/18 11:23:06;;;;;;;10.23;3.67;;;17.00;84.20;;;;;;5075462;28;20415;-74
2022/10/18 11:25:49;;;;;;;9.77;5.53;;;17.10;80.50;;;;;;5073965;28;20417;-73
2022/10/18 11:28:39;;;;;;;6.43;4.47;;;16.90;63.20;;;;;;5075306;28;20440;-74
2022/10/18 11:31:19;;;;;;;8.43;5.00;;;16.70;55.90;;;;;;5069806;28;20429;-73
2022/10/18 11:34:00;;;;;;;9.70;3.83;;;16.50;65.90;;;;;;5054263;28;20435;-74
2022/10/18 11:36:51;;;;;;;6.83;4.30;;;16.30;61.50;;;;;;5053582;28;20461;-74
2022/10/18 11:39:55;;;;;;;9.07;4.30;;;16.30;68.10;;;;;;5053860;28;20782;-74
2022/10/18 11:42:46;;;;;;;6.30;3.40;;;16.30;81.20;;;;;;5054697;28;20500;-74
2022/10/18 11:45:36;;;;;;;8.83;3.97;;;16.30;87.00;;;;;;5054042;28;20465;-72
2022/10/18 11:48:36;;;;;;;7.43;3.40;;;16.20;82.50;;;;;;5054881;28;20407;-73
2022/10/18 11:51:18;;;;;;;9.17;3.00;;;16.00;66.30;;;;;;5054857;28;20793;-73
2022/10/18 11:54:25;;;;;;;13.47;4.00;;;16.00;70.00;;;;;;5053866;28;20401;-74
2022/10/18 11:57:00;;;;;;;8.13;3.50;;;16.10;78.90;;;;;;5054187;28;20457;-73
2022/10/18 12:00:02;;;;;;;4.33;2.13;;;16.30;89.30;;;;;;5071539;28;20432;-75
2022/10/18 12:02:51;;;;;;;7.77;2.67;;;16.40;75.40;;;;;;5042961;28;20432;-74
2022/10/18 12:05:17;;;;;;;11.37;3.60;;;16.20;36.20;;;;;;5072497;28;20960;-73
2022/10/18 12:07:55;;;;;;;4.83;1.97;;;16.00;8.50;;;;;;5074346;28;20428;-73
2022/10/18 12:10:22;;;;;;;4.93;2.20;;;16.00;10.50;;;;;;5074391;28;20392;-72
2022/10/18 12:12:52;;;;;;;6.00;2.33;;;16.00;14.20;;;;;;5074177;28;20491;-73
2022/10/18 12:15:22;;;;;;;7.07;2.10;;;16.20;5.40;;;;;;5073271;28;20452;-73
2022/10/18 12:17:57;;;;;;;7.60;1.90;;;16.40;1.00;;;;;;5074506;28;20430;-73
2022/10/18 12:20:40;;;;;;;3.70;2.20;;;16.60;1.00;;;;;;5072384;28;20527;-73
2022/10/18 12:23:53;;;;;;;7.53;2.00;;;16.80;1.00;;;;;;5072722;28;20415;-73
2022/10/18 12:26:20;;;;;;;4.33;1.57;;;16.90;1.00;;;;;;5012285;28;20997;-72
2022/10/18 12:29:07;;;;;;;6.77;2.17;;;17.00;6.80;;;;;;5012253;28;20461;-72
2022/10/18 12:31:47;;;;;;;6.80;1.77;;;17.10;1.00;;;;;;5049854;28;20420;-73
2022/10/18 12:34:34;;;;;;;2.43;1.50;;;17.10;1.00;;;;;;5068417;28;20486;-72
2022/10/18 12:37:34;;;;;;;3.90;1.60;;;17.10;1.00;;;;;;5053333;28;20505;-74
2022/10/18 12:40:12;;;;;;;9.90;2.50;;;17.00;1.00;;;;;;5031792;28;20412;-72
2022/10/18 12:42:49;;;;;;;5.00;1.70;;;17.00;1.00;;;;;;5053863;28;20405;-73
2022/10/18 12:45:28;;;;;;;3.07;1.40;;;17.00;1.00;;;;;;5052857;28;20440;-72
2022/10/18 12:47:58;;;;;;;2.40;1.67;;;17.10;1.00;;;;;;5056905;28;20463;-72
2022/10/18 12:50:41;;;;;;;4.30;1.33;;;17.60;1.00;;;;;;5073671;28;20422;-72
2022/10/18 12:53:25;;;;;;;6.93;1.53;;;18.30;1.00;;;;;;5062619;28;20482;-73
2022/10/18 12:55:52;;;;;;;4.20;1.57;;;19.00;1.00;;;;;;5086786;28;20447;-73
2022/10/18 12:58:31;;;;;;;6.30;1.70;;;19.60;1.00;;;;;;5089925;28;20420;-72
2022/10/18 13:01:02;;;;;;;4.47;2.00;;;19.70;1.00;;;;;;5073351;28;20391;-75